Time,TemperatureF,DewpointF,PressureIn,WindDirection,WindDirectionDegrees,WindSpeedMPH,WindSpeedGustMPH,Humidity,HourlyPrecipIn,Conditions,Clouds,dailyrainin,SolarRadiationWatts/m^2,SoftwareType,DateUTC
2013-03-13 00:02:00,16.0,13.0,-100.00,NNE,14,5.0,12.0,86,0.00,,,0.00,1.000000,,2013-03-13 05:02:00,
2013-03-13 00:12:00,16.0,13.0,-100.00,NNE,14,5.0,12.0,86,0.00,,,0.00,1.000000,,2013-03-13 05:12:00,
2013-03-13 00:22:00,16.0,13.0,-100.00,NNE,14,5.0,12.0,86,0.00,,,0.00,1.000000,,2013-03-13 05:22:00,
2013-03-13 00:32:00,16.0,13.0,-100.00,NNE,14,5.0,12.0,86,0.00,,,0.00,1.000000,,2013-03-13 05:32:00,
2013-03-13 01:02:00,15.0,11.0,-100.00,North,358,7.0,13.0,85,0.00,,,0.00,1.000000,,2013-03-13 06:02:00,
2013-03-13 01:12:00,15.0,11.0,-100.00,North,358,7.0,13.0,85,0.00,,,0.00,1.000000,,2013-03-13 06:12:00,
2013-03-13 01:23:00,15.0,11.0,-100.00,North,358,7.0,13.0,85,0.00,,,0.00,1.000000,,2013-03-13 06:23:00,
2013-03-13 01:32:00,15.0,11.0,-100.00,North,358,7.0,13.0,85,0.00,,,0.00,1.000000,,2013-03-13 06:32:00,
2013-03-13 02:02:00,14.0,10.0,-100.00,North,355,6.0,11.0,85,0.00,,,0.00,1.000000,,2013-03-13 07:02:00,
2013-03-13 02:12:00,14.0,10.0,-100.00,North,355,6.0,11.0,85,0.00,,,0.00,1.000000,,2013-03-13 07:12:00,
2013-03-13 02:22:00,14.0,10.0,-100.00,North,355,6.0,11.0,85,0.00,,,0.00,1.000000,,2013-03-13 07:22:00,
2013-03-13 02:32:00,14.0,10.0,-100.00,North,355,6.0,11.0,85,0.00,,,0.00,1.000000,,2013-03-13 07:32:00,
2013-03-13 03:03:00,13.0,9.0,-100.00,NNW,344,4.0,8.0,85,0.00,,,0.00,1.000000,,2013-03-13 08:03:00,
2013-03-13 03:12:00,13.0,9.0,-100.00,NNW,344,4.0,8.0,85,0.00,,,0.00,1.000000,,2013-03-13 08:12:00,
2013-03-13 03:22:00,13.0,9.0,-100.00,NNW,344,4.0,8.0,85,0.00,,,0.00,1.000000,,2013-03-13 08:22:00,
2013-03-13 03:32:00,13.0,9.0,-100.00,NNW,344,4.0,8.0,85,0.00,,,0.00,1.000000,,2013-03-13 08:32:00,
2013-03-13 04:02:00,13.0,8.0,-100.00,NNW,345,4.0,7.0,81,0.00,,,0.00,1.000000,,2013-03-13 09:02:00,
2013-03-13 04:12:00,13.0,8.0,-100.00,NNW,345,4.0,7.0,81,0.00,,,0.00,1.000000,,2013-03-13 09:12:00,
2013-03-13 04:22:00,13.0,8.0,-100.00,NNW,345,4.0,7.0,81,0.00,,,0.00,1.000000,,2013-03-13 09:22:00,
2013-03-13 04:32:00,13.0,8.0,-100.00,NNW,345,4.0,7.0,81,0.00,,,0.00,1.000000,,2013-03-13 09:32:00,
2013-03-13 05:02:00,13.0,7.0,-100.00,NNW,340,6.0,9.0,78,0.00,,,0.00,1.000000,,2013-03-13 10:02:00,
2013-03-13 05:12:00,13.0,7.0,-100.00,NNW,340,6.0,9.0,78,0.00,,,0.00,1.000000,,2013-03-13 10:12:00,
2013-03-13 05:22:00,13.0,7.0,-100.00,NNW,340,6.0,9.0,78,0.00,,,0.00,1.000000,,2013-03-13 10:22:00,
2013-03-13 05:32:00,13.0,7.0,-100.00,NNW,340,6.0,9.0,78,0.00,,,0.00,1.000000,,2013-03-13 10:32:00,
2013-03-13 06:02:00,12.0,6.0,-100.00,NNW,342,4.0,8.0,78,0.00,,,0.00,1.000000,,2013-03-13 11:02:00,
2013-03-13 06:12:00,12.0,6.0,-100.00,NNW,342,4.0,8.0,78,0.00,,,0.00,1.000000,,2013-03-13 11:12:00,
2013-03-13 06:22:00,12.0,6.0,-100.00,NNW,342,4.0,8.0,78,0.00,,,0.00,1.000000,,2013-03-13 11:22:00,
2013-03-13 06:32:00,12.0,6.0,-100.00,NNW,342,4.0,8.0,78,0.00,,,0.00,1.000000,,2013-03-13 11:32:00,
2013-03-13 06:53:00,12.0,7.0,-100.00,NNW,334,3.0,6.0,79,0.00,,,0.00,1.000000,,2013-03-13 11:53:00,
2013-03-13 07:02:00,12.0,7.0,-100.00,NNW,334,3.0,6.0,79,0.00,,,0.00,1.000000,,2013-03-13 12:02:00,
2013-03-13 07:12:00,12.0,7.0,-100.00,NNW,334,3.0,6.0,79,0.00,,,0.00,1.000000,,2013-03-13 12:12:00,
2013-03-13 07:22:00,12.0,7.0,-100.00,NNW,334,3.0,6.0,79,0.00,,,0.00,1.000000,,2013-03-13 12:22:00,
2013-03-13 07:32:00,12.0,7.0,-100.00,NNW,334,3.0,6.0,79,0.00,,,0.00,1.000000,,2013-03-13 12:32:00,
2013-03-13 08:02:00,12.0,6.0,-100.00,NNW,336,5.0,9.0,78,0.00,,,0.00,5.000000,,2013-03-13 13:02:00,
2013-03-13 08:12:00,12.0,6.0,-100.00,NNW,336,5.0,9.0,78,0.00,,,0.00,5.000000,,2013-03-13 13:12:00,
2013-03-13 08:22:00,12.0,6.0,-100.00,NNW,336,5.0,9.0,78,0.00,,,0.00,5.000000,,2013-03-13 13:22:00,
2013-03-13 08:33:00,12.0,6.0,-100.00,NNW,336,5.0,9.0,78,0.00,,,0.00,5.000000,,2013-03-13 13:33:00,
2013-03-13 09:02:00,14.0,7.0,-100.00,NNW,348,6.0,12.0,74,0.00,,,0.00,52.000000,,2013-03-13 14:02:00,
2013-03-13 09:12:00,14.0,7.0,-100.00,NNW,348,6.0,12.0,74,0.00,,,0.00,52.000000,,2013-03-13 14:12:00,
2013-03-13 09:22:00,14.0,7.0,-100.00,NNW,348,6.0,12.0,74,0.00,,,0.00,52.000000,,2013-03-13 14:22:00,
2013-03-13 09:33:00,14.0,7.0,-100.00,NNW,348,6.0,12.0,74,0.00,,,0.00,52.000000,,2013-03-13 14:33:00,
2013-03-13 10:03:00,18.0,9.0,-100.00,North,3,7.0,15.0,68,0.00,,,0.00,205.000000,,2013-03-13 15:03:00,
2013-03-13 10:12:00,18.0,9.0,-100.00,North,3,7.0,15.0,68,0.00,,,0.00,205.000000,,2013-03-13 15:12:00,
2013-03-13 10:22:00,18.0,9.0,-100.00,North,3,7.0,15.0,68,0.00,,,0.00,205.000000,,2013-03-13 15:22:00,
2013-03-13 10:32:00,18.0,9.0,-100.00,North,3,7.0,15.0,68,0.00,,,0.00,205.000000,,2013-03-13 15:32:00,
2013-03-13 11:03:00,21.0,10.0,-100.00,NNW,346,10.0,20.0,61,0.00,,,0.00,429.000000,,2013-03-13 16:03:00,
2013-03-13 11:12:00,21.0,10.0,-100.00,NNW,346,10.0,20.0,61,0.00,,,0.00,429.000000,,2013-03-13 16:12:00,
2013-03-13 11:22:00,21.0,10.0,-100.00,NNW,346,10.0,20.0,61,0.00,,,0.00,429.000000,,2013-03-13 16:22:00,
2013-03-13 11:32:00,21.0,10.0,-100.00,NNW,346,10.0,20.0,61,0.00,,,0.00,429.000000,,2013-03-13 16:32:00,
2013-03-13 12:02:00,23.0,8.0,-100.00,North,353,9.0,17.0,51,0.00,,,0.00,580.000000,,2013-03-13 17:02:00,
2013-03-13 12:12:00,23.0,8.0,-100.00,North,353,9.0,17.0,51,0.00,,,0.00,580.000000,,2013-03-13 17:12:00,
2013-03-13 12:22:00,23.0,8.0,-100.00,North,353,9.0,17.0,51,0.00,,,0.00,580.000000,,2013-03-13 17:22:00,
2013-03-13 12:32:00,23.0,8.0,-100.00,North,353,9.0,17.0,51,0.00,,,0.00,580.000000,,2013-03-13 17:32:00,
2013-03-13 12:53:00,25.0,6.0,-100.00,NNE,24,9.0,17.0,44,0.00,,,0.00,674.000000,,2013-03-13 17:53:00,
2013-03-13 13:02:00,25.0,6.0,-100.00,NNE,24,9.0,17.0,44,0.00,,,0.00,674.000000,,2013-03-13 18:02:00,
2013-03-13 13:12:00,25.0,6.0,-100.00,NNE,24,9.0,17.0,44,0.00,,,0.00,674.000000,,2013-03-13 18:12:00,
2013-03-13 13:22:00,25.0,6.0,-100.00,NNE,24,9.0,17.0,44,0.00,,,0.00,674.000000,,2013-03-13 18:22:00,
2013-03-13 13:33:00,25.0,6.0,-100.00,NNE,24,9.0,17.0,44,0.00,,,0.00,674.000000,,2013-03-13 18:33:00,
2013-03-13 14:02:00,27.0,4.0,-100.00,North,360,8.0,15.0,37,0.05,,,0.05,711.000000,,2013-03-13 19:02:00,
2013-03-13 14:12:00,27.0,4.0,-100.00,North,360,8.0,15.0,37,0.05,,,0.05,711.000000,,2013-03-13 19:12:00,
2013-03-13 14:22:00,27.0,4.0,-100.00,North,360,8.0,15.0,37,0.05,,,0.05,711.000000,,2013-03-13 19:22:00,
2013-03-13 14:32:00,27.0,4.0,-100.00,North,360,8.0,15.0,37,0.05,,,0.05,711.000000,,2013-03-13 19:32:00,
2013-03-13 15:02:00,29.0,7.0,-100.00,North,4,7.0,15.0,38,0.09,,,0.14,674.000000,,2013-03-13 20:02:00,
2013-03-13 15:12:00,29.0,7.0,-100.00,North,4,7.0,15.0,38,0.09,,,0.14,674.000000,,2013-03-13 20:12:00,
2013-03-13 15:22:00,29.0,7.0,-100.00,North,4,7.0,15.0,38,0.09,,,0.14,674.000000,,2013-03-13 20:22:00,
2013-03-13 15:32:00,29.0,7.0,-100.00,North,4,7.0,15.0,38,0.09,,,0.14,674.000000,,2013-03-13 20:32:00,
2013-03-13 16:02:00,30.0,8.0,-100.00,North,357,8.0,15.0,39,0.04,,,0.18,565.000000,,2013-03-13 21:02:00,
2013-03-13 16:12:00,30.0,8.0,-100.00,North,357,8.0,15.0,39,0.04,,,0.18,565.000000,,2013-03-13 21:12:00,
2013-03-13 16:22:00,30.0,8.0,-100.00,North,357,8.0,15.0,39,0.04,,,0.18,565.000000,,2013-03-13 21:22:00,
2013-03-13 16:33:00,30.0,8.0,-100.00,North,357,8.0,15.0,39,0.04,,,0.18,565.000000,,2013-03-13 21:33:00,
2013-03-13 17:02:00,31.0,10.0,-100.00,NNW,348,6.0,12.0,40,0.03,,,0.21,470.000000,,2013-03-13 22:02:00,
2013-03-13 17:12:00,31.0,10.0,-100.00,NNW,348,6.0,12.0,40,0.03,,,0.21,470.000000,,2013-03-13 22:12:00,
2013-03-13 17:22:00,31.0,10.0,-100.00,NNW,348,6.0,12.0,40,0.03,,,0.21,470.000000,,2013-03-13 22:22:00,
2013-03-13 17:32:00,31.0,10.0,-100.00,NNW,348,6.0,12.0,40,0.03,,,0.21,470.000000,,2013-03-13 22:32:00,
2013-03-13 18:02:00,29.0,10.0,-100.00,NNW,332,6.0,15.0,45,0.00,,,0.21,307.000000,,2013-03-13 23:02:00,
2013-03-13 18:12:00,29.0,10.0,-100.00,NNW,332,6.0,15.0,45,0.00,,,0.21,307.000000,,2013-03-13 23:12:00,
2013-03-13 18:22:00,29.0,10.0,-100.00,NNW,332,6.0,15.0,45,0.00,,,0.21,307.000000,,2013-03-13 23:22:00,
2013-03-13 18:32:00,29.0,10.0,-100.00,NNW,332,6.0,15.0,45,0.00,,,0.21,307.000000,,2013-03-13 23:32:00,
2013-03-13 19:02:00,25.0,7.0,-100.00,NNW,341,5.0,11.0,46,0.00,,,0.21,74.000000,,2013-03-14 00:02:00,
2013-03-13 19:12:00,25.0,7.0,-100.00,NNW,341,5.0,11.0,46,0.00,,,0.21,74.000000,,2013-03-14 00:12:00,
2013-03-13 19:22:00,25.0,7.0,-100.00,NNW,341,5.0,11.0,46,0.00,,,0.21,74.000000,,2013-03-14 00:22:00,
2013-03-13 19:32:00,25.0,7.0,-100.00,NNW,341,5.0,11.0,46,0.00,,,0.21,74.000000,,2013-03-14 00:32:00,
2013-03-13 20:02:00,21.0,6.0,-100.00,NW,314,3.0,6.0,52,0.00,,,0.21,6.000000,,2013-03-14 01:02:00,
2013-03-13 20:12:00,21.0,6.0,-100.00,NW,314,3.0,6.0,52,0.00,,,0.21,6.000000,,2013-03-14 01:12:00,
2013-03-13 20:22:00,21.0,6.0,-100.00,NW,314,3.0,6.0,52,0.00,,,0.21,6.000000,,2013-03-14 01:22:00,
2013-03-13 20:32:00,21.0,6.0,-100.00,NW,314,3.0,6.0,52,0.00,,,0.21,6.000000,,2013-03-14 01:32:00,
2013-03-13 21:02:00,13.0,7.0,-100.00,SSW,209,2.0,2.0,78,0.00,,,0.21,1.000000,,2013-03-14 02:02:00,
2013-03-13 21:12:00,13.0,7.0,-100.00,SSW,209,2.0,2.0,78,0.00,,,0.21,1.000000,,2013-03-14 02:12:00,
2013-03-13 21:22:00,13.0,7.0,-100.00,SSW,209,2.0,2.0,78,0.00,,,0.21,1.000000,,2013-03-14 02:22:00,
2013-03-13 21:32:00,13.0,7.0,-100.00,SSW,209,2.0,2.0,78,0.00,,,0.21,1.000000,,2013-03-14 02:32:00,
2013-03-13 22:02:00,9.0,4.0,-100.00,SW,216,1.0,3.0,81,0.00,,,0.21,1.000000,,2013-03-14 03:02:00,
2013-03-13 22:12:00,9.0,4.0,-100.00,SW,216,1.0,3.0,81,0.00,,,0.21,1.000000,,2013-03-14 03:12:00,
2013-03-13 22:23:00,9.0,4.0,-100.00,SW,216,1.0,3.0,81,0.00,,,0.21,1.000000,,2013-03-14 03:23:00,
2013-03-13 22:32:00,9.0,4.0,-100.00,SW,216,1.0,3.0,81,0.00,,,0.21,1.000000,,2013-03-14 03:32:00,
2013-03-13 23:12:00,6.0,2.0,-100.00,SSW,206,0.0,2.0,83,0.00,,,0.21,1.000000,,2013-03-14 04:12:00,
2013-03-13 23:22:00,6.0,2.0,-100.00,SSW,206,0.0,2.0,83,0.00,,,0.21,1.000000,,2013-03-14 04:22:00,
2013-03-13 23:32:00,6.0,2.0,-100.00,SSW,206,0.0,2.0,83,0.00,,,0.21,1.000000,,2013-03-14 04:32:00,